sensor_id;sensor_type;location;lat;lon;timestamp;temperature;humidity
12967;DHT22;6548;49.996;8.238;2022-11-10T00:01:55;10.20;99.90
12967;DHT22;6548;49.996;8.238;2022-11-10T00:04:21;10.80;99.90
12967;DHT22;6548;49.996;8.238;2022-11-10T00:06:47;10.20;99.90
12967;DHT22;6548;49.996;8.238;2022-11-10T00:09:13;10.20;99.90
12967;DHT22;6548;49.996;8.238;2022-11-10T00:11:39;10.80;99.90
12967;DHT22;6548;49.996;8.238;2022-11-10T00:14:05;11.30;99.90
12967;DHT22;6548;49.996;8.238;2022-11-10T00:16:49;11.50;99.90
12967;DHT22;6548;49.996;8.238;2022-11-10T00:19:33;10.10;99.90
12967;DHT22;6548;49.996;8.238;2022-11-10T00:21:59;10.10;99.90
12967;DHT22;6548;49.996;8.238;2022-11-10T00:24:26;10.10;99.90
12967;DHT22;6548;49.996;8.238;2022-11-10T00:26:52;10.20;99.90
12967;DHT22;6548;49.996;8.238;2022-11-10T00:29:18;10.10;99.90
12967;DHT22;6548;49.996;8.238;2022-11-10T00:31:43;10.00;99.90
12967;DHT22;6548;49.996;8.238;2022-11-10T00:34:15;10.00;99.90
12967;DHT22;6548;49.996;8.238;2022-11-10T00:36:42;10.00;99.90
12967;DHT22;6548;49.996;8.238;2022-11-10T00:39:08;10.00;99.90
12967;DHT22;6548;49.996;8.238;2022-11-10T00:41:34;10.50;99.90
12967;DHT22;6548;49.996;8.238;2022-11-10T00:44:00;9.70;99.90
12967;DHT22;6548;49.996;8.238;2022-11-10T00:46:25;9.50;99.90
12967;DHT22;6548;49.996;8.238;2022-11-10T00:48:51;9.40;99.90
12967;DHT22;6548;49.996;8.238;2022-11-10T00:51:21;9.50;99.90
12967;DHT22;6548;49.996;8.238;2022-11-10T00:53:48;9.20;99.90
12967;DHT22;6548;49.996;8.238;2022-11-10T00:56:13;9.30;99.90
12967;DHT22;6548;49.996;8.238;2022-11-10T00:58:39;9.30;99.90
12967;DHT22;6548;49.996;8.238;2022-11-10T01:01:05;9.40;99.90
12967;DHT22;6548;49.996;8.238;2022-11-10T01:03:32;9.40;99.90
12967;DHT22;6548;49.996;8.238;2022-11-10T01:06:02;9.50;99.90
12967;DHT22;6548;49.996;8.238;2022-11-10T01:08:28;9.60;99.90
12967;DHT22;6548;49.996;8.238;2022-11-10T01:11:01;9.60;99.90
12967;DHT22;6548;49.996;8.238;2022-11-10T01:13:27;9.50;99.90
12967;DHT22;6548;49.996;8.238;2022-11-10T01:15:52;9.50;99.90
12967;DHT22;6548;49.996;8.238;2022-11-10T01:18:18;9.50;99.90
12967;DHT22;6548;49.996;8.238;2022-11-10T01:20:43;9.40;99.90
12967;DHT22;6548;49.996;8.238;2022-11-10T01:23:13;9.20;99.90
12967;DHT22;6548;49.996;8.238;2022-11-10T01:25:39;9.00;99.90
12967;DHT22;6548;49.996;8.238;2022-11-10T01:28:04;8.90;99.90
12967;DHT22;6548;49.996;8.238;2022-11-10T01:30:30;8.70;99.90
12967;DHT22;6548;49.996;8.238;2022-11-10T01:32:56;8.60;99.90
12967;DHT22;6548;49.996;8.238;2022-11-10T01:35:22;8.40;99.90
12967;DHT22;6548;49.996;8.238;2022-11-10T01:37:49;8.40;99.90
12967;DHT22;6548;49.996;8.238;2022-11-10T01:40:15;8.30;99.90
12967;DHT22;6548;49.996;8.238;2022-11-10T01:42:49;8.20;99.90
12967;DHT22;6548;49.996;8.238;2022-11-10T01:47:57;8.20;99.90
12967;DHT22;6548;49.996;8.238;2022-11-10T01:50:26;8.10;99.90
12967;DHT22;6548;49.996;8.238;2022-11-10T01:52:56;8.10;99.90
12967;DHT22;6548;49.996;8.238;2022-11-10T01:55:22;8.00;99.90
12967;DHT22;6548;49.996;8.238;2022-11-10T01:57:49;8.10;99.90
12967;DHT22;6548;49.996;8.238;2022-11-10T02:00:16;8.10;99.90
12967;DHT22;6548;49.996;8.238;2022-11-10T02:02:53;8.10;99.90
12967;DHT22;6548;49.996;8.238;2022-11-10T02:05:22;8.00;99.90
12967;DHT22;6548;49.996;8.238;2022-11-10T02:07:49;8.10;99.90
12967;DHT22;6548;49.996;8.238;2022-11-10T02:10:17;8.00;99.90
12967;DHT22;6548;49.996;8.238;2022-11-10T02:12:44;8.30;99.90
12967;DHT22;6548;49.996;8.238;2022-11-10T02:15:12;8.40;99.90
12967;DHT22;6548;49.996;8.238;2022-11-10T02:17:39;8.20;99.90
12967;DHT22;6548;49.996;8.238;2022-11-10T02:20:08;8.30;99.90
12967;DHT22;6548;49.996;8.238;2022-11-10T02:22:35;8.20;99.90
12967;DHT22;6548;49.996;8.238;2022-11-10T02:25:01;8.60;99.90
12967;DHT22;6548;49.996;8.238;2022-11-10T02:27:26;8.40;99.90
12967;DHT22;6548;49.996;8.238;2022-11-10T02:29:52;8.50;99.90
12967;DHT22;6548;49.996;8.238;2022-11-10T02:32:18;8.30;99.90
12967;DHT22;6548;49.996;8.238;2022-11-10T02:34:43;8.40;99.90
12967;DHT22;6548;49.996;8.238;2022-11-10T02:37:09;8.40;99.90
12967;DHT22;6548;49.996;8.238;2022-11-10T02:39:35;8.30;99.90
12967;DHT22;6548;49.996;8.238;2022-11-10T02:42:02;8.10;99.90
12967;DHT22;6548;49.996;8.238;2022-11-10T02:44:27;7.90;99.90
12967;DHT22;6548;49.996;8.238;2022-11-10T02:46:53;8.00;99.90
12967;DHT22;6548;49.996;8.238;2022-11-10T02:49:19;8.00;99.90
12967;DHT22;6548;49.996;8.238;2022-11-10T02:51:44;7.90;99.90
12967;DHT22;6548;49.996;8.238;2022-11-10T02:54:10;7.80;99.90
12967;DHT22;6548;49.996;8.238;2022-11-10T02:56:35;7.70;99.90
12967;DHT22;6548;49.996;8.238;2022-11-10T02:59:01;8.00;99.90
12967;DHT22;6548;49.996;8.238;2022-11-10T03:01:27;8.20;99.90
12967;DHT22;6548;49.996;8.238;2022-11-10T03:03:53;9.70;99.90
12967;DHT22;6548;49.996;8.238;2022-11-10T03:06:18;9.70;99.90
12967;DHT22;6548;49.996;8.238;2022-11-10T03:08:44;8.10;99.90
12967;DHT22;6548;49.996;8.238;2022-11-10T03:11:10;8.00;99.90
12967;DHT22;6548;49.996;8.238;2022-11-10T03:13:35;7.90;99.90
12967;DHT22;6548;49.996;8.238;2022-11-10T03:16:01;8.80;99.90
12967;DHT22;6548;49.996;8.238;2022-11-10T03:18:27;7.60;99.90
12967;DHT22;6548;49.996;8.238;2022-11-10T03:20:52;8.90;99.90
12967;DHT22;6548;49.996;8.238;2022-11-10T03:23:18;7.40;99.90
12967;DHT22;6548;49.996;8.238;2022-11-10T03:25:44;7.10;99.90
12967;DHT22;6548;49.996;8.238;2022-11-10T03:28:10;7.20;99.90
12967;DHT22;6548;49.996;8.238;2022-11-10T03:30:37;8.50;99.90
12967;DHT22;6548;49.996;8.238;2022-11-10T03:33:02;7.30;99.90
12967;DHT22;6548;49.996;8.238;2022-11-10T03:35:28;7.00;99.90
12967;DHT22;6548;49.996;8.238;2022-11-10T03:37:53;7.00;99.90
12967;DHT22;6548;49.996;8.238;2022-11-10T03:40:19;7.00;99.90
12967;DHT22;6548;49.996;8.238;2022-11-10T03:42:45;7.00;99.90
12967;DHT22;6548;49.996;8.238;2022-11-10T03:45:12;6.90;99.90
12967;DHT22;6548;49.996;8.238;2022-11-10T03:47:39;7.00;99.90
12967;DHT22;6548;49.996;8.238;2022-11-10T03:50:05;6.80;99.90
12967;DHT22;6548;49.996;8.238;2022-11-10T03:52:31;6.80;99.90
12967;DHT22;6548;49.996;8.238;2022-11-10T03:54:57;7.40;99.90
12967;DHT22;6548;49.996;8.238;2022-11-10T03:57:22;6.70;99.90
12967;DHT22;6548;49.996;8.238;2022-11-10T03:59:48;6.90;99.90
12967;DHT22;6548;49.996;8.238;2022-11-10T04:02:14;6.60;99.90
12967;DHT22;6548;49.996;8.238;2022-11-10T04:04:39;6.50;99.90
12967;DHT22;6548;49.996;8.238;2022-11-10T04:07:23;6.50;99.90
12967;DHT22;6548;49.996;8.238;2022-11-10T04:10:08;6.50;99.90
12967;DHT22;6548;49.996;8.238;2022-11-10T04:12:33;6.50;99.90
12967;DHT22;6548;49.996;8.238;2022-11-10T04:15:18;6.40;99.90
12967;DHT22;6548;49.996;8.238;2022-11-10T04:18:02;6.50;99.90
12967;DHT22;6548;49.996;8.238;2022-11-10T04:20:57;6.60;99.90
12967;DHT22;6548;49.996;8.238;2022-11-10T04:23:24;6.60;99.90
12967;DHT22;6548;49.996;8.238;2022-11-10T04:25:54;6.70;99.90
12967;DHT22;6548;49.996;8.238;2022-11-10T04:28:38;6.70;99.90
12967;DHT22;6548;49.996;8.238;2022-11-10T04:31:04;6.80;99.90
12967;DHT22;6548;49.996;8.238;2022-11-10T04:33:30;6.70;99.90
12967;DHT22;6548;49.996;8.238;2022-11-10T04:35:55;6.60;99.90
12967;DHT22;6548;49.996;8.238;2022-11-10T04:38:21;6.60;99.90
12967;DHT22;6548;49.996;8.238;2022-11-10T04:40:46;6.60;99.90
12967;DHT22;6548;49.996;8.238;2022-11-10T04:43:12;6.60;99.90
12967;DHT22;6548;49.996;8.238;2022-11-10T04:45:37;6.60;99.90
12967;DHT22;6548;49.996;8.238;2022-11-10T04:48:03;6.60;99.90
12967;DHT22;6548;49.996;8.238;2022-11-10T04:50:29;6.50;99.90
12967;DHT22;6548;49.996;8.238;2022-11-10T04:52:54;6.50;99.90
12967;DHT22;6548;49.996;8.238;2022-11-10T04:55:20;6.40;99.90
12967;DHT22;6548;49.996;8.238;2022-11-10T04:57:46;6.30;99.90
12967;DHT22;6548;49.996;8.238;2022-11-10T05:00:12;6.30;99.90
12967;DHT22;6548;49.996;8.238;2022-11-10T05:02:37;6.40;99.90
12967;DHT22;6548;49.996;8.238;2022-11-10T05:05:03;6.30;99.90
12967;DHT22;6548;49.996;8.238;2022-11-10T05:07:29;6.30;99.90
12967;DHT22;6548;49.996;8.238;2022-11-10T05:09:54;6.40;99.90
12967;DHT22;6548;49.996;8.238;2022-11-10T05:12:20;6.40;99.90
12967;DHT22;6548;49.996;8.238;2022-11-10T05:14:45;6.50;99.90
12967;DHT22;6548;49.996;8.238;2022-11-10T05:17:11;6.30;99.90
12967;DHT22;6548;49.996;8.238;2022-11-10T05:19:37;6.40;99.90
12967;DHT22;6548;49.996;8.238;2022-11-10T05:22:02;6.40;99.90
12967;DHT22;6548;49.996;8.238;2022-11-10T05:24:28;6.40;99.90
12967;DHT22;6548;49.996;8.238;2022-11-10T05:26:53;6.50;99.90
12967;DHT22;6548;49.996;8.238;2022-11-10T05:29:19;6.50;99.90
12967;DHT22;6548;49.996;8.238;2022-11-10T05:31:44;6.60;99.90
12967;DHT22;6548;49.996;8.238;2022-11-10T05:34:10;6.50;99.90
12967;DHT22;6548;49.996;8.238;2022-11-10T05:36:35;6.50;99.90
12967;DHT22;6548;49.996;8.238;2022-11-10T05:39:01;6.50;99.90
12967;DHT22;6548;49.996;8.238;2022-11-10T05:41:26;6.50;99.90
12967;DHT22;6548;49.996;8.238;2022-11-10T05:43:52;6.50;99.90
12967;DHT22;6548;49.996;8.238;2022-11-10T05:46:18;6.40;99.90
12967;DHT22;6548;49.996;8.238;2022-11-10T05:48:45;6.40;99.90
12967;DHT22;6548;49.996;8.238;2022-11-10T05:51:10;6.40;99.90
12967;DHT22;6548;49.996;8.238;2022-11-10T05:53:36;6.40;99.90
12967;DHT22;6548;49.996;8.238;2022-11-10T05:56:01;6.50;99.90
12967;DHT22;6548;49.996;8.238;2022-11-10T05:58:27;6.40;99.90
12967;DHT22;6548;49.996;8.238;2022-11-10T06:00:53;6.30;99.90
12967;DHT22;6548;49.996;8.238;2022-11-10T06:03:19;6.20;99.90
12967;DHT22;6548;49.996;8.238;2022-11-10T06:05:45;6.10;99.90
12967;DHT22;6548;49.996;8.238;2022-11-10T06:08:10;6.10;99.90
12967;DHT22;6548;49.996;8.238;2022-11-10T06:10:37;6.10;99.90
12967;DHT22;6548;49.996;8.238;2022-11-10T06:13:03;6.10;99.90
12967;DHT22;6548;49.996;8.238;2022-11-10T06:15:29;6.20;99.90
12967;DHT22;6548;49.996;8.238;2022-11-10T06:17:56;6.30;99.90
12967;DHT22;6548;49.996;8.238;2022-11-10T06:20:22;6.40;99.90
12967;DHT22;6548;49.996;8.238;2022-11-10T06:23:11;6.40;99.90
12967;DHT22;6548;49.996;8.238;2022-11-10T06:25:38;6.40;99.90
12967;DHT22;6548;49.996;8.238;2022-11-10T06:28:11;6.40;99.90
12967;DHT22;6548;49.996;8.238;2022-11-10T06:30:37;6.40;99.90
12967;DHT22;6548;49.996;8.238;2022-11-10T06:33:03;6.40;99.90
12967;DHT22;6548;49.996;8.238;2022-11-10T06:35:29;6.50;99.90
12967;DHT22;6548;49.996;8.238;2022-11-10T06:38:06;6.50;99.90
12967;DHT22;6548;49.996;8.238;2022-11-10T06:40:32;6.50;99.90
12967;DHT22;6548;49.996;8.238;2022-11-10T06:42:58;6.50;99.90
12967;DHT22;6548;49.996;8.238;2022-11-10T06:45:25;6.50;99.90
12967;DHT22;6548;49.996;8.238;2022-11-10T06:48:12;6.50;99.90
12967;DHT22;6548;49.996;8.238;2022-11-10T06:50:40;6.50;99.90
12967;DHT22;6548;49.996;8.238;2022-11-10T06:53:06;6.60;99.90
12967;DHT22;6548;49.996;8.238;2022-11-10T06:55:32;6.60;99.90
12967;DHT22;6548;49.996;8.238;2022-11-10T06:57:58;6.60;99.90
12967;DHT22;6548;49.996;8.238;2022-11-10T07:00:24;6.60;99.90
12967;DHT22;6548;49.996;8.238;2022-11-10T07:03:08;6.50;99.90
12967;DHT22;6548;49.996;8.238;2022-11-10T07:05:35;6.50;99.90
12967;DHT22;6548;49.996;8.238;2022-11-10T07:10:28;6.80;99.90
12967;DHT22;6548;49.996;8.238;2022-11-10T07:12:57;6.90;99.90
12967;DHT22;6548;49.996;8.238;2022-11-10T07:15:23;7.10;99.90
12967;DHT22;6548;49.996;8.238;2022-11-10T07:17:48;7.20;99.90
12967;DHT22;6548;49.996;8.238;2022-11-10T07:20:14;7.30;99.90
12967;DHT22;6548;49.996;8.238;2022-11-10T07:22:40;7.30;99.90
12967;DHT22;6548;49.996;8.238;2022-11-10T07:25:06;7.40;99.90
12967;DHT22;6548;49.996;8.238;2022-11-10T07:27:31;7.60;99.90
12967;DHT22;6548;49.996;8.238;2022-11-10T07:29:57;8.10;99.90
12967;DHT22;6548;49.996;8.238;2022-11-10T07:32:23;8.90;99.90
12967;DHT22;6548;49.996;8.238;2022-11-10T07:34:49;8.60;99.90
12967;DHT22;6548;49.996;8.238;2022-11-10T07:37:14;8.90;99.90
12967;DHT22;6548;49.996;8.238;2022-11-10T07:39:40;9.10;99.90
12967;DHT22;6548;49.996;8.238;2022-11-10T07:42:05;9.40;99.90
12967;DHT22;6548;49.996;8.238;2022-11-10T07:44:31;9.30;99.90
12967;DHT22;6548;49.996;8.238;2022-11-10T07:46:56;9.50;99.90
12967;DHT22;6548;49.996;8.238;2022-11-10T07:49:22;9.80;99.90
12967;DHT22;6548;49.996;8.238;2022-11-10T07:51:48;9.90;99.90
12967;DHT22;6548;49.996;8.238;2022-11-10T07:54:13;10.10;99.90
12967;DHT22;6548;49.996;8.238;2022-11-10T07:56:39;10.40;99.90
12967;DHT22;6548;49.996;8.238;2022-11-10T07:59:06;10.60;99.90
12967;DHT22;6548;49.996;8.238;2022-11-10T08:01:32;10.80;99.90
12967;DHT22;6548;49.996;8.238;2022-11-10T08:03:58;10.60;99.90
12967;DHT22;6548;49.996;8.238;2022-11-10T08:06:24;10.70;99.90
12967;DHT22;6548;49.996;8.238;2022-11-10T08:08:50;11.50;99.90
12967;DHT22;6548;49.996;8.238;2022-11-10T08:11:15;10.60;99.90
12967;DHT22;6548;49.996;8.238;2022-11-10T08:13:41;10.80;99.90
12967;DHT22;6548;49.996;8.238;2022-11-10T08:16:06;10.90;99.90
12967;DHT22;6548;49.996;8.238;2022-11-10T08:18:32;11.20;99.90
12967;DHT22;6548;49.996;8.238;2022-11-10T08:21:02;11.30;99.90
12967;DHT22;6548;49.996;8.238;2022-11-10T08:23:27;11.40;99.90
12967;DHT22;6548;49.996;8.238;2022-11-10T08:25:56;11.60;99.90
12967;DHT22;6548;49.996;8.238;2022-11-10T08:28:22;11.70;99.90
12967;DHT22;6548;49.996;8.238;2022-11-10T08:30:48;11.80;99.90
12967;DHT22;6548;49.996;8.238;2022-11-10T08:33:16;11.80;99.90
12967;DHT22;6548;49.996;8.238;2022-11-10T08:35:44;12.00;99.90
12967;DHT22;6548;49.996;8.238;2022-11-10T08:38:12;12.00;99.90
12967;DHT22;6548;49.996;8.238;2022-11-10T08:40:39;11.70;99.90
12967;DHT22;6548;49.996;8.238;2022-11-10T08:43:06;11.70;99.90
12967;DHT22;6548;49.996;8.238;2022-11-10T08:45:36;11.80;99.90
12967;DHT22;6548;49.996;8.238;2022-11-10T08:50:32;12.10;99.90
12967;DHT22;6548;49.996;8.238;2022-11-10T08:53:03;11.90;99.90
12967;DHT22;6548;49.996;8.238;2022-11-10T08:55:29;12.20;99.90
12967;DHT22;6548;49.996;8.238;2022-11-10T08:58:03;11.80;99.90
12967;DHT22;6548;49.996;8.238;2022-11-10T09:00:29;12.40;99.90
12967;DHT22;6548;49.996;8.238;2022-11-10T09:02:58;13.00;99.90
12967;DHT22;6548;49.996;8.238;2022-11-10T09:05:26;12.10;99.90
12967;DHT22;6548;49.996;8.238;2022-11-10T09:07:52;12.70;99.90
12967;DHT22;6548;49.996;8.238;2022-11-10T09:10:18;13.20;99.90
12967;DHT22;6548;49.996;8.238;2022-11-10T09:12:43;13.10;99.90
12967;DHT22;6548;49.996;8.238;2022-11-10T09:15:10;12.70;99.90
12967;DHT22;6548;49.996;8.238;2022-11-10T09:17:37;12.50;99.90
12967;DHT22;6548;49.996;8.238;2022-11-10T09:20:04;12.40;99.90
12967;DHT22;6548;49.996;8.238;2022-11-10T09:22:30;12.70;99.90
12967;DHT22;6548;49.996;8.238;2022-11-10T09:24:56;12.60;99.90
12967;DHT22;6548;49.996;8.238;2022-11-10T09:27:21;12.60;99.90
12967;DHT22;6548;49.996;8.238;2022-11-10T09:29:47;12.60;99.90
12967;DHT22;6548;49.996;8.238;2022-11-10T09:32:12;12.70;99.90
12967;DHT22;6548;49.996;8.238;2022-11-10T09:34:38;12.30;99.90
12967;DHT22;6548;49.996;8.238;2022-11-10T09:37:04;12.10;99.90
12967;DHT22;6548;49.996;8.238;2022-11-10T09:39:29;12.10;99.90
12967;DHT22;6548;49.996;8.238;2022-11-10T09:41:55;13.40;99.90
12967;DHT22;6548;49.996;8.238;2022-11-10T09:44:24;11.90;99.90
12967;DHT22;6548;49.996;8.238;2022-11-10T09:46:56;11.80;99.90
12967;DHT22;6548;49.996;8.238;2022-11-10T09:49:29;11.80;99.90
12967;DHT22;6548;49.996;8.238;2022-11-10T09:51:58;11.80;99.90
12967;DHT22;6548;49.996;8.238;2022-11-10T09:54:48;11.80;99.90
12967;DHT22;6548;49.996;8.238;2022-11-10T09:57:19;11.90;99.90
12967;DHT22;6548;49.996;8.238;2022-11-10T09:59:45;11.70;99.90
12967;DHT22;6548;49.996;8.238;2022-11-10T10:05:03;11.70;99.90
12967;DHT22;6548;49.996;8.238;2022-11-10T10:18:43;11.90;99.90
12967;DHT22;6548;49.996;8.238;2022-11-10T10:23:53;12.10;99.90
12967;DHT22;6548;49.996;8.238;2022-11-10T10:26:23;12.10;99.90
12967;DHT22;6548;49.996;8.238;2022-11-10T10:28:49;12.20;99.90
12967;DHT22;6548;49.996;8.238;2022-11-10T10:31:22;12.30;99.90
12967;DHT22;6548;49.996;8.238;2022-11-10T10:33:52;12.40;99.90
12967;DHT22;6548;49.996;8.238;2022-11-10T10:36:22;12.30;99.90
12967;DHT22;6548;49.996;8.238;2022-11-10T10:38:51;12.40;99.90
12967;DHT22;6548;49.996;8.238;2022-11-10T10:41:22;12.40;99.90
12967;DHT22;6548;49.996;8.238;2022-11-10T10:43:51;12.50;99.90
12967;DHT22;6548;49.996;8.238;2022-11-10T10:46:17;12.50;99.90
12967;DHT22;6548;49.996;8.238;2022-11-10T10:51:42;12.60;99.90
12967;DHT22;6548;49.996;8.238;2022-11-10T10:54:27;12.60;99.90
12967;DHT22;6548;49.996;8.238;2022-11-10T10:57:19;12.80;99.90
12967;DHT22;6548;49.996;8.238;2022-11-10T10:59:45;12.90;99.90
12967;DHT22;6548;49.996;8.238;2022-11-10T11:02:21;13.00;99.90
12967;DHT22;6548;49.996;8.238;2022-11-10T11:04:48;13.10;99.90
12967;DHT22;6548;49.996;8.238;2022-11-10T11:07:22;13.10;99.90
12967;DHT22;6548;49.996;8.238;2022-11-10T11:09:48;13.10;99.90
12967;DHT22;6548;49.996;8.238;2022-11-10T11:12:34;13.70;99.90
12967;DHT22;6548;49.996;8.238;2022-11-10T11:15:20;13.40;99.90
12967;DHT22;6548;49.996;8.238;2022-11-10T11:17:54;13.40;99.90
12967;DHT22;6548;49.996;8.238;2022-11-10T11:20:25;14.00;99.90
12967;DHT22;6548;49.996;8.238;2022-11-10T11:23:02;13.50;99.90
12967;DHT22;6548;49.996;8.238;2022-11-10T11:25:41;13.50;99.90
12967;DHT22;6548;49.996;8.238;2022-11-10T11:30:45;13.40;99.90
12967;DHT22;6548;49.996;8.238;2022-11-10T11:33:20;13.70;99.90
12967;DHT22;6548;49.996;8.238;2022-11-10T11:41:36;14.10;99.90
12967;DHT22;6548;49.996;8.238;2022-11-10T11:44:33;13.90;99.90
12967;DHT22;6548;49.996;8.238;2022-11-10T11:47:20;14.00;99.90
12967;DHT22;6548;49.996;8.238;2022-11-10T11:52:35;14.90;99.90
12967;DHT22;6548;49.996;8.238;2022-11-10T11:58:06;15.10;99.90
12967;DHT22;6548;49.996;8.238;2022-11-10T12:04:05;14.80;99.90
12967;DHT22;6548;49.996;8.238;2022-11-10T12:17:21;15.10;99.90
12967;DHT22;6548;49.996;8.238;2022-11-10T12:19:59;15.00;99.90
12967;DHT22;6548;49.996;8.238;2022-11-10T12:25:24;15.20;99.90
12967;DHT22;6548;49.996;8.238;2022-11-10T12:27:55;15.30;99.90
12967;DHT22;6548;49.996;8.238;2022-11-10T12:30:24;15.20;99.90
12967;DHT22;6548;49.996;8.238;2022-11-10T12:35:26;15.80;99.90
12967;DHT22;6548;49.996;8.238;2022-11-10T12:38:03;15.60;99.90
12967;DHT22;6548;49.996;8.238;2022-11-10T12:40:45;15.70;99.90
12967;DHT22;6548;49.996;8.238;2022-11-10T12:46:14;16.20;99.90
12967;DHT22;6548;49.996;8.238;2022-11-10T12:48:56;16.10;99.90
12967;DHT22;6548;49.996;8.238;2022-11-10T12:51:35;16.00;99.90
12967;DHT22;6548;49.996;8.238;2022-11-10T12:54:03;16.00;99.90
12967;DHT22;6548;49.996;8.238;2022-11-10T12:56:50;16.30;99.90
12967;DHT22;6548;49.996;8.238;2022-11-10T13:01:46;16.40;99.90
12967;DHT22;6548;49.996;8.238;2022-11-10T13:04:15;16.50;99.90
12967;DHT22;6548;49.996;8.238;2022-11-10T13:07:04;16.40;99.90
12967;DHT22;6548;49.996;8.238;2022-11-10T13:09:32;16.40;99.90
12967;DHT22;6548;49.996;8.238;2022-11-10T13:12:20;16.40;99.90
12967;DHT22;6548;49.996;8.238;2022-11-10T13:14:46;16.20;99.90
12967;DHT22;6548;49.996;8.238;2022-11-10T13:19:57;16.50;99.90
12967;DHT22;6548;49.996;8.238;2022-11-10T13:22:37;16.40;99.90
12967;DHT22;6548;49.996;8.238;2022-11-10T13:27:59;17.40;99.90
12967;DHT22;6548;49.996;8.238;2022-11-10T13:30:41;16.90;99.90
12967;DHT22;6548;49.996;8.238;2022-11-10T13:35:52;16.90;99.90
12967;DHT22;6548;49.996;8.238;2022-11-10T13:38:39;17.00;99.90
12967;DHT22;6548;49.996;8.238;2022-11-10T13:43:55;16.80;99.90
12967;DHT22;6548;49.996;8.238;2022-11-10T13:46:43;16.70;99.90
12967;DHT22;6548;49.996;8.238;2022-11-10T13:52:21;16.90;99.90
12967;DHT22;6548;49.996;8.238;2022-11-10T13:55:01;16.90;99.90
12967;DHT22;6548;49.996;8.238;2022-11-10T13:57:37;16.70;99.90
12967;DHT22;6548;49.996;8.238;2022-11-10T14:00:28;16.80;99.90
12967;DHT22;6548;49.996;8.238;2022-11-10T14:02:56;16.90;99.90
12967;DHT22;6548;49.996;8.238;2022-11-10T14:08:16;16.70;99.90
12967;DHT22;6548;49.996;8.238;2022-11-10T14:10:59;16.30;99.90
12967;DHT22;6548;49.996;8.238;2022-11-10T14:13:46;16.20;99.90
12967;DHT22;6548;49.996;8.238;2022-11-10T14:16:38;16.20;99.90
12967;DHT22;6548;49.996;8.238;2022-11-10T14:19:17;16.30;99.90
12967;DHT22;6548;49.996;8.238;2022-11-10T14:22:25;16.00;99.90
12967;DHT22;6548;49.996;8.238;2022-11-10T14:27:37;15.90;99.90
12967;DHT22;6548;49.996;8.238;2022-11-10T14:32:28;16.20;99.90
12967;DHT22;6548;49.996;8.238;2022-11-10T14:34:55;16.50;99.90
12967;DHT22;6548;49.996;8.238;2022-11-10T14:37:23;16.00;99.90
12967;DHT22;6548;49.996;8.238;2022-11-10T14:39:54;16.10;99.90
12967;DHT22;6548;49.996;8.238;2022-11-10T14:42:23;15.80;99.90
12967;DHT22;6548;49.996;8.238;2022-11-10T14:44:49;15.60;99.90
12967;DHT22;6548;49.996;8.238;2022-11-10T14:47:29;15.50;99.90
12967;DHT22;6548;49.996;8.238;2022-11-10T14:52:49;15.60;99.90
12967;DHT22;6548;49.996;8.238;2022-11-10T14:55:22;15.60;99.90
12967;DHT22;6548;49.996;8.238;2022-11-10T14:57:51;15.20;99.90
12967;DHT22;6548;49.996;8.238;2022-11-10T15:00:25;15.10;99.90
12967;DHT22;6548;49.996;8.238;2022-11-10T15:02:53;15.10;99.90
12967;DHT22;6548;49.996;8.238;2022-11-10T15:05:19;14.90;99.90
12967;DHT22;6548;49.996;8.238;2022-11-10T15:07:45;14.80;99.90
12967;DHT22;6548;49.996;8.238;2022-11-10T15:13:05;14.00;99.90
12967;DHT22;6548;49.996;8.238;2022-11-10T15:15:31;13.80;99.90
12967;DHT22;6548;49.996;8.238;2022-11-10T15:17:56;13.90;99.90
12967;DHT22;6548;49.996;8.238;2022-11-10T15:21:04;13.50;99.90
12967;DHT22;6548;49.996;8.238;2022-11-10T15:23:32;13.40;99.90
12967;DHT22;6548;49.996;8.238;2022-11-10T15:26:01;13.20;99.90
12967;DHT22;6548;49.996;8.238;2022-11-10T15:28:34;13.00;99.90
12967;DHT22;6548;49.996;8.238;2022-11-10T15:31:09;12.80;99.90
12967;DHT22;6548;49.996;8.238;2022-11-10T15:33:37;12.70;99.90
12967;DHT22;6548;49.996;8.238;2022-11-10T15:36:27;12.60;99.90
12967;DHT22;6548;49.996;8.238;2022-11-10T15:41:28;12.40;99.90
12967;DHT22;6548;49.996;8.238;2022-11-10T15:43:54;12.30;99.90
12967;DHT22;6548;49.996;8.238;2022-11-10T15:46:23;12.20;99.90
12967;DHT22;6548;49.996;8.238;2022-11-10T15:48:50;12.10;99.90
12967;DHT22;6548;49.996;8.238;2022-11-10T15:51:18;12.00;99.90
12967;DHT22;6548;49.996;8.238;2022-11-10T15:53:46;12.10;99.90
12967;DHT22;6548;49.996;8.238;2022-11-10T15:56:20;11.90;99.90
12967;DHT22;6548;49.996;8.238;2022-11-10T15:58:48;11.80;99.90
12967;DHT22;6548;49.996;8.238;2022-11-10T16:01:15;11.60;99.90
12967;DHT22;6548;49.996;8.238;2022-11-10T16:03:42;11.60;99.90
12967;DHT22;6548;49.996;8.238;2022-11-10T16:06:16;11.50;99.90
12967;DHT22;6548;49.996;8.238;2022-11-10T16:08:42;11.50;99.90
12967;DHT22;6548;49.996;8.238;2022-11-10T16:11:15;11.40;99.90
12967;DHT22;6548;49.996;8.238;2022-11-10T16:13:41;11.30;99.90
12967;DHT22;6548;49.996;8.238;2022-11-10T16:16:12;11.30;99.90
12967;DHT22;6548;49.996;8.238;2022-11-10T16:18:39;11.30;99.90
12967;DHT22;6548;49.996;8.238;2022-11-10T16:21:04;11.20;99.90
12967;DHT22;6548;49.996;8.238;2022-11-10T16:23:30;11.20;99.90
12967;DHT22;6548;49.996;8.238;2022-11-10T16:25:56;11.00;99.90
12967;DHT22;6548;49.996;8.238;2022-11-10T16:28:24;11.00;99.90
12967;DHT22;6548;49.996;8.238;2022-11-10T16:30:51;10.90;99.90
12967;DHT22;6548;49.996;8.238;2022-11-10T16:33:19;10.80;99.90
12967;DHT22;6548;49.996;8.238;2022-11-10T16:35:49;11.30;99.90
12967;DHT22;6548;49.996;8.238;2022-11-10T16:38:26;10.60;99.90
12967;DHT22;6548;49.996;8.238;2022-11-10T16:41:03;10.60;99.90
12967;DHT22;6548;49.996;8.238;2022-11-10T16:43:30;10.50;99.90
12967;DHT22;6548;49.996;8.238;2022-11-10T16:46:01;10.50;99.90
12967;DHT22;6548;49.996;8.238;2022-11-10T16:48:30;10.50;99.90
12967;DHT22;6548;49.996;8.238;2022-11-10T16:50:58;10.40;99.90
12967;DHT22;6548;49.996;8.238;2022-11-10T16:53:26;10.40;99.90
12967;DHT22;6548;49.996;8.238;2022-11-10T16:55:53;10.20;99.90
12967;DHT22;6548;49.996;8.238;2022-11-10T16:58:19;10.20;99.90
12967;DHT22;6548;49.996;8.238;2022-11-10T17:00:45;10.10;99.90
12967;DHT22;6548;49.996;8.238;2022-11-10T17:03:35;10.10;99.90
12967;DHT22;6548;49.996;8.238;2022-11-10T17:06:01;10.00;99.90
12967;DHT22;6548;49.996;8.238;2022-11-10T17:08:29;10.00;99.90
12967;DHT22;6548;49.996;8.238;2022-11-10T17:10:55;9.90;99.90
12967;DHT22;6548;49.996;8.238;2022-11-10T17:13:24;9.80;99.90
12967;DHT22;6548;49.996;8.238;2022-11-10T17:16:06;9.80;99.90
12967;DHT22;6548;49.996;8.238;2022-11-10T17:18:36;9.80;99.90
12967;DHT22;6548;49.996;8.238;2022-11-10T17:21:02;9.70;99.90
12967;DHT22;6548;49.996;8.238;2022-11-10T17:23:31;9.70;99.90
12967;DHT22;6548;49.996;8.238;2022-11-10T17:25:57;9.70;99.90
12967;DHT22;6548;49.996;8.238;2022-11-10T17:28:23;9.70;99.90
12967;DHT22;6548;49.996;8.238;2022-11-10T17:30:48;9.70;99.90
12967;DHT22;6548;49.996;8.238;2022-11-10T17:33:14;9.70;99.90
12967;DHT22;6548;49.996;8.238;2022-11-10T17:35:45;9.70;99.90
12967;DHT22;6548;49.996;8.238;2022-11-10T17:38:13;9.50;99.90
12967;DHT22;6548;49.996;8.238;2022-11-10T17:40:41;9.40;99.90
12967;DHT22;6548;49.996;8.238;2022-11-10T17:43:11;9.30;99.90
12967;DHT22;6548;49.996;8.238;2022-11-10T17:45:38;9.30;99.90